Current Weather

Burlington Municipal Arpt

Burlington Municipal Arpt, Wisconsin (KBUU)

Report from: Thursday, May 19, 2022 12:55 PM CDT
Current time: Thursday, May 19, 2022 1:15 PM CDT

Nearby weather
Weather history
Weather forecast

Temperature21.2°C (70.2°F)
Dew point16.3°C (61.3°F)
Winds 3 kts (1.5 m/s, 3.5 mph) West (260°)
Visibility10 mi. (16.1 km)
Altimeter29.65 in.Hg (1004 mB)
Relative humidity74 %
Density altitude1,289 ft. (393 m)
Max temp last 6 hours21.8°C (71.2°F)
Min temp last 6 hours12.4°C (54.3°F)
Remarks Fully automated report
Automated weather observing station with precipitation discriminator
Present weather sensor not operating
Flight conditions Visual Meteorological Conditions
Raw dataKBUU 191755Z AUTO 26003KT 10SM 21/16 A2965 RMK AO2 T02120163 10218 20124 PWINO
An error has occurred. This application may no longer respond until reloaded. Reload 🗙